Casper, WY (82604)

11:51 PM MDT on July 09, 2014 (GMT -0600)
North of Casper, WY (KWYBARNU1) Elev 5276 ft | 42.91 °N, 106.35 °W | Change Station

Current weather conditions updated 3 minutes ago

Clear
Clear
70.8 °F
Feels Like 76 °F
N
6.9
Wind Variable Wind from NNE
Gusts 8.0 mph

Tomorrow is forecast to be Cooler than today. Showers and thunderstorms early tomorrow night.

Today
High -- | Low -- °F
--% Chance of Precip.
Yesterday
High -- | Low -- °F
Precip. -- in
5:35 AM 8:45 PM
Waxing Gibbous, 93% visible
Pressure 29.72 in
Visibility 10.0 miles
Clouds Clear
Heat Index 76 °F
Dew Point 55 °F
Humidity 57%
Rainfall 0.00 in
Snow Depth 0 in
UV 0 out of 12
Pollen 4.80 out of 12
Air Quality Not available.
Flu Activity Sporadic
METAR KCPR 100353Z AUTO 09015KT 10SM CLR 24/13 A2995 RMK AO2 PK WND 08027/0318 SLP064 T02440133

More Conditions Fewer Conditions

Pressure 29.72 in
Visibility 10.0 miles
Clouds Clear
Heat Index 76 °F
Dew Point 55 °F
Humidity 57%
Rainfall 0.00 in
Snow Depth 0 in
UV 0 out of 12
Pollen 4.80 out of 12
Air Quality Not available.
Flu Activity Sporadic
METAR KCPR 100353Z AUTO 09015KT 10SM CLR 24/13 A2995 RMK AO2 PK WND 08027/0318 SLP064 T02440133

More Conditions Fewer Conditions

10-Day Weather Forecast

Almanac

Astronomy

Jul. 09, 2014 Rise Set
Actual Time 5:35 AM MDT 8:45 PM MDT
Civil Twilight 5:01 AM MDT 9:19 PM MDT
Nautical Twilight 4:17 AM MDT 10:03 PM MDT
Astronomical Twilight 3:23 AM MDT 10:57 PM MDT
Moon 5:57 PM MDT (7/9) 2:58 AM MDT (7/9)
Length of Visible Light 16h 18m
Length of Day
15h 09m
Tomorrow will be 1m 13s shorter.
Waxing Gibbous, 93% of the Moon is Illuminated
Jul 10
Waxing Gibbous
Jul 12
Full
Jul 18
Last Quarter
Jul 26
New
Aug 3
First Quarter

Yesterday's Extremes

State Highs State Lows

Community

WunderPhotos

Upload Photos

1,732,075 photos uploaded!

Nearby

Snow Depth

Station Depth Elevation
Casper Mountain 0 in 7850 ft
Grave Springs 0 in 8550 ft
Townsend Creek 0 in 8700 ft
Sucker Creek 0 in 8880 ft
Cole Canyon 0 in 5910 ft

Earthquake Activity

City Distance Mag. Time & Date
No recent earthquake activity has been reported nearby.
Minimum magnitude displayed is 2.5.

Coastal Water Temperatures

Place Temperature
No Stations Reporting

Nearby Weather Stations

Station Location Temp. Heat Index Dew Point Humidity Wind Precip. Elev Updated Type
HADS MILLS TEST STATION WY, Casper, WY 75 °F 73 °F - - North  at  - 0.00 in / hr 5148 ft 11:00 PM MDT MADIS
North of Casper, WY, Bar Nunn, WY 70.8 °F 76 °F 55 °F 57% NNE  at  6.9 mph 0.00 in / hr 5276 ft 11:47 PM MDT Normal
RAWS CASPER MOUNTAIN WY, Casper, WY 70 °F - 46 °F 43% SSE  at  18 mph 0.00 in / hr 7740 ft 10:52 PM MDT MADIS
MesoWest CASPER MTN. , Casper, WY 67 °F - - - North  at  - 0.00 in / hr 7850 ft 10:00 PM MDT MADIS
MesoWest RENO HILL , Evansville, WY 65 °F - - - North  at  - 0.00 in / hr 8500 ft 10:00 PM MDT MADIS

Show More Stations Show Fewer Stations